Time;durP1;ratioP1;P1;durP2;ratioP2;P2;SDS_P1;SDS_P2;PMS_P1;PMS_P2;Temp;Humidity;BMP_temperature;BMP_pressure;BME280_temperature;BME280_humidity;BME280_pressure;Samples;Min_cycle;Max_cycle;Signal;HPM_P1;HPM_P2
2022/09/12 00:01:02;;;;;;;17.77;12.52;;;;;;;;;;5032666;28;20026;-88
2022/09/12 00:03:28;;;;;;;16.45;13.82;;;;;;;;;;5031611;28;20021;-88
2022/09/12 00:05:54;;;;;;;22.10;14.60;;;;;;;;;;5026665;28;20353;-89
2022/09/12 00:08:20;;;;;;;15.65;14.05;;;;;;;;;;5030218;28;20074;-89
2022/09/12 00:10:46;;;;;;;16.83;13.88;;;;;;;;;;5055043;28;20119;-89
2022/09/12 00:13:12;;;;;;;18.50;15.30;;;;;;;;;;5036149;28;20021;-88
2022/09/12 00:15:42;;;;;;;18.77;14.77;;;;;;;;;;5050308;28;20014;-88
2022/09/12 00:18:09;;;;;;;19.45;15.55;;;;;;;;;;5033731;28;20033;-87
2022/09/12 00:20:35;;;;;;;20.30;17.92;;;;;;;;;;5028369;28;20037;-88
2022/09/12 00:23:01;;;;;;;20.00;15.93;;;;;;;;;;5034562;28;20025;-88
2022/09/12 00:25:29;;;;;;;22.75;15.40;;;;;;;;;;5036970;28;20017;-91
2022/09/12 00:27:57;;;;;;;20.80;15.30;;;;;;;;;;5032309;28;20087;-88
2022/09/12 00:30:23;;;;;;;23.42;18.08;;;;;;;;;;5039951;28;20022;-87
2022/09/12 00:32:50;;;;;;;26.50;16.17;;;;;;;;;;5048251;28;20089;-88
2022/09/12 00:35:16;;;;;;;23.45;17.27;;;;;;;;;;5032641;28;20047;-87
2022/09/12 00:37:42;;;;;;;20.38;17.58;;;;;;;;;;5029721;28;20022;-87
2022/09/12 00:40:08;;;;;;;21.48;19.20;;;;;;;;;;5041422;28;20373;-87
2022/09/12 00:42:34;;;;;;;19.35;16.77;;;;;;;;;;5030034;28;20021;-88
2022/09/12 00:45:00;;;;;;;27.20;19.30;;;;;;;;;;5035349;28;20086;-88
2022/09/12 00:47:27;;;;;;;22.40;18.05;;;;;;;;;;5027814;28;20021;-88
2022/09/12 00:49:53;;;;;;;26.50;18.00;;;;;;;;;;5033376;28;20032;-88
2022/09/12 00:52:22;;;;;;;24.45;18.95;;;;;;;;;;5031427;28;20108;-88
2022/09/12 00:55:11;;;;;;;24.60;17.90;;;;;;;;;;5034203;28;20496;-88
2022/09/12 00:57:41;;;;;;;23.73;20.02;;;;;;;;;;5022408;28;20060;-88
2022/09/12 01:00:12;;;;;;;24.45;19.67;;;;;;;;;;5034496;28;20056;-88
2022/09/12 01:02:39;;;;;;;23.75;19.83;;;;;;;;;;5032965;28;20021;-89
2022/09/12 01:05:05;;;;;;;17.30;15.45;;;;;;;;;;5041854;28;20017;-89
2022/09/12 01:07:34;;;;;;;20.65;16.48;;;;;;;;;;5030861;28;20045;-89
2022/09/12 01:10:00;;;;;;;19.60;15.45;;;;;;;;;;5040638;28;20022;-88
2022/09/12 01:12:26;;;;;;;19.88;14.93;;;;;;;;;;5035436;28;20084;-88
2022/09/12 01:14:52;;;;;;;21.38;16.25;;;;;;;;;;5030855;28;20494;-88
2022/09/12 01:17:18;;;;;;;18.77;15.70;;;;;;;;;;5029682;28;20120;-88
2022/09/12 01:20:12;;;;;;;22.45;15.82;;;;;;;;;;5030723;28;20117;-88
2022/09/12 01:22:54;;;;;;;22.08;15.45;;;;;;;;;;5049320;28;20384;-88
2022/09/12 01:25:23;;;;;;;17.23;14.80;;;;;;;;;;5033600;28;20054;-88
2022/09/12 01:27:59;;;;;;;22.05;16.73;;;;;;;;;;5049394;28;20017;-88
2022/09/12 01:30:28;;;;;;;18.98;16.52;;;;;;;;;;5050163;28;20090;-88
2022/09/12 01:32:54;;;;;;;18.58;16.08;;;;;;;;;;5052169;28;20083;-88
2022/09/12 01:35:22;;;;;;;25.33;15.90;;;;;;;;;;5030464;28;20104;-88
2022/09/12 01:37:55;;;;;;;23.05;17.70;;;;;;;;;;5042101;28;20026;-87
2022/09/12 01:40:40;;;;;;;23.33;16.80;;;;;;;;;;5038296;28;20030;-88
2022/09/12 01:43:17;;;;;;;20.42;17.15;;;;;;;;;;5047415;28;20029;-88
2022/09/12 01:45:43;;;;;;;21.63;17.25;;;;;;;;;;5038652;28;20476;-88
2022/09/12 01:48:19;;;;;;;22.75;18.15;;;;;;;;;;5030777;28;20064;-88
2022/09/12 01:50:55;;;;;;;25.38;15.98;;;;;;;;;;5048437;28;20025;-88
2022/09/12 01:53:24;;;;;;;17.98;15.90;;;;;;;;;;5033967;28;20031;-88
2022/09/12 01:56:09;;;;;;;22.55;15.88;;;;;;;;;;5029006;28;20045;-87
2022/09/12 01:58:38;;;;;;;17.30;14.88;;;;;;;;;;5036893;28;20018;-88
2022/09/12 02:01:08;;;;;;;17.40;14.73;;;;;;;;;;5039368;28;20516;-88
2022/09/12 02:03:41;;;;;;;24.48;17.35;;;;;;;;;;5051140;28;20036;-88
2022/09/12 02:06:10;;;;;;;23.75;15.15;;;;;;;;;;5036219;28;20392;-88
2022/09/12 02:08:49;;;;;;;21.50;15.52;;;;;;;;;;5035408;28;20479;-88
2022/09/12 02:11:15;;;;;;;19.08;14.82;;;;;;;;;;5043733;28;20021;-87
2022/09/12 02:13:43;;;;;;;19.23;15.30;;;;;;;;;;5035194;28;20029;-88
2022/09/12 02:16:10;;;;;;;19.90;15.48;;;;;;;;;;5036663;28;20025;-88
2022/09/12 02:18:42;;;;;;;17.75;14.68;;;;;;;;;;5035341;28;20014;-88
2022/09/12 02:21:08;;;;;;;19.02;14.45;;;;;;;;;;5034861;28;20083;-88
2022/09/12 02:23:36;;;;;;;18.58;14.50;;;;;;;;;;5038744;28;20018;-88
2022/09/12 02:26:06;;;;;;;17.35;14.40;;;;;;;;;;5040871;28;20021;-88
2022/09/12 02:28:34;;;;;;;15.60;12.98;;;;;;;;;;5037282;28;20021;-89
2022/09/12 02:31:13;;;;;;;17.13;14.48;;;;;;;;;;5033058;28;20025;-89
2022/09/12 02:33:52;;;;;;;20.52;15.30;;;;;;;;;;5034970;28;20472;-89
2022/09/12 02:36:22;;;;;;;17.27;14.90;;;;;;;;;;5050776;28;20381;-88
2022/09/12 02:38:49;;;;;;;17.08;15.27;;;;;;;;;;5037212;28;20423;-88
2022/09/12 02:41:18;;;;;;;25.52;16.63;;;;;;;;;;5040482;28;20076;-88
2022/09/12 02:43:44;;;;;;;22.55;16.40;;;;;;;;;;5040194;28;20018;-87
2022/09/12 02:46:14;;;;;;;19.10;15.10;;;;;;;;;;5053656;28;20021;-88
2022/09/12 02:48:41;;;;;;;20.27;15.60;;;;;;;;;;5038158;28;20103;-88
2022/09/12 02:51:08;;;;;;;18.33;15.68;;;;;;;;;;5028916;28;20104;-88
2022/09/12 02:53:35;;;;;;;18.85;15.25;;;;;;;;;;5035643;28;20017;-89
2022/09/12 02:56:01;;;;;;;17.90;15.75;;;;;;;;;;5048252;28;20041;-88
2022/09/12 02:58:31;;;;;;;20.00;16.10;;;;;;;;;;5034819;28;20041;-88
2022/09/12 03:01:08;;;;;;;22.33;16.90;;;;;;;;;;5053256;28;20042;-88
2022/09/12 03:03:41;;;;;;;20.92;16.77;;;;;;;;;;5034477;28;20104;-88
2022/09/12 03:06:07;;;;;;;;;;;;;;;;;;5055147;28;20108;-88
2022/09/12 03:08:47;;;;;;;15.68;14.07;;;;;;;;;;5037480;28;19909;-89
2022/09/12 03:11:28;;;;;;;21.05;14.52;;;;;;;;;;5029585;28;20044;-88
2022/09/12 03:14:04;;;;;;;22.10;16.85;;;;;;;;;;5042295;28;20067;-89
2022/09/12 03:16:39;;;;;;;27.92;18.50;;;;;;;;;;5054113;28;20018;-89
2022/09/12 03:19:24;;;;;;;22.13;16.58;;;;;;;;;;5027829;28;20017;-88
2022/09/12 03:22:09;;;;;;;16.00;13.13;;;;;;;;;;5035125;28;20081;-88
2022/09/12 03:24:38;;;;;;;17.63;13.38;;;;;;;;;;5053439;28;20088;-88
2022/09/12 03:27:15;;;;;;;25.63;13.93;;;;;;;;;;5035174;28;20034;-89
2022/09/12 03:29:42;;;;;;;24.38;18.23;;;;;;;;;;5036401;28;20052;-88
2022/09/12 03:32:09;;;;;;;21.05;17.10;;;;;;;;;;5032727;28;20407;-88
2022/09/12 03:34:35;;;;;;;26.10;17.13;;;;;;;;;;5036114;28;20123;-89
2022/09/12 03:37:01;;;;;;;23.27;18.30;;;;;;;;;;5030656;28;20036;-87
2022/09/12 03:39:27;;;;;;;22.67;18.50;;;;;;;;;;5026487;28;20020;-88
2022/09/12 03:41:54;;;;;;;24.88;18.80;;;;;;;;;;5053450;28;20060;-87
2022/09/12 03:44:20;;;;;;;32.90;22.60;;;;;;;;;;5035318;28;20104;-88
2022/09/12 03:46:46;;;;;;;22.52;19.38;;;;;;;;;;5035406;28;20077;-87
2022/09/12 03:49:13;;;;;;;26.08;17.60;;;;;;;;;;5029176;28;20420;-87
2022/09/12 03:51:39;;;;;;;19.30;16.38;;;;;;;;;;5038692;28;20013;-87
2022/09/12 03:54:06;;;;;;;20.92;16.50;;;;;;;;;;5040566;28;20151;-88
2022/09/12 03:56:32;;;;;;;21.25;16.42;;;;;;;;;;5032876;28;20045;-88
2022/09/12 03:58:58;;;;;;;18.10;13.43;;;;;;;;;;5032628;28;20017;-87
2022/09/12 04:01:24;;;;;;;19.92;14.77;;;;;;;;;;5034544;28;20030;-88
2022/09/12 04:03:51;;;;;;;17.48;15.52;;;;;;;;;;5046959;28;20037;-88
2022/09/12 04:06:18;;;;;;;16.65;12.95;;;;;;;;;;5023956;28;20028;-88
2022/09/12 04:08:47;;;;;;;15.80;13.27;;;;;;;;;;5034844;28;20499;-88
2022/09/12 04:11:14;;;;;;;18.48;13.65;;;;;;;;;;5042613;28;20145;-88
2022/09/12 04:13:42;;;;;;;19.20;13.25;;;;;;;;;;5042604;28;20032;-88
2022/09/12 04:16:08;;;;;;;16.48;13.70;;;;;;;;;;5028162;28;20105;-88
2022/09/12 04:18:35;;;;;;;15.90;12.95;;;;;;;;;;5027336;28;20021;-89
2022/09/12 04:21:04;;;;;;;15.82;13.23;;;;;;;;;;5026948;28;20029;-88
2022/09/12 04:23:30;;;;;;;70.90;53.08;;;;;;;;;;5042667;28;20188;-88
2022/09/12 04:25:57;;;;;;;19.38;14.93;;;;;;;;;;5023700;28;20033;-88
2022/09/12 04:28:24;;;;;;;16.05;12.90;;;;;;;;;;5033910;28;20076;-88
2022/09/12 04:30:50;;;;;;;16.58;12.68;;;;;;;;;;5025988;28;20017;-88
2022/09/12 04:33:17;;;;;;;20.02;13.50;;;;;;;;;;5034011;28;20040;-89
2022/09/12 04:35:44;;;;;;;17.88;13.30;;;;;;;;;;5031897;28;20021;-89
2022/09/12 04:38:10;;;;;;;15.00;12.30;;;;;;;;;;5048485;28;20155;-88
2022/09/12 04:40:36;;;;;;;15.05;11.52;;;;;;;;;;5032486;28;21208;-89
2022/09/12 04:43:03;;;;;;;14.35;11.52;;;;;;;;;;5020845;28;20022;-88
2022/09/12 04:45:29;;;;;;;12.63;11.27;;;;;;;;;;5024119;28;20760;-88
2022/09/12 04:47:55;;;;;;;14.40;11.82;;;;;;;;;;5039414;28;20033;-86
2022/09/12 04:50:21;;;;;;;13.07;10.77;;;;;;;;;;5022528;28;20081;-89
2022/09/12 04:52:51;;;;;;;14.40;11.68;;;;;;;;;;5018787;28;20132;-89
2022/09/12 04:55:18;;;;;;;12.77;10.48;;;;;;;;;;5025998;28;20061;-86
2022/09/12 04:57:44;;;;;;;11.23;9.90;;;;;;;;;;5027667;28;20029;-87
2022/09/12 05:00:12;;;;;;;9.15;8.13;;;;;;;;;;5029610;28;20037;-88
2022/09/12 05:02:38;;;;;;;11.73;8.43;;;;;;;;;;5022902;28;20024;-87
2022/09/12 05:05:04;;;;;;;9.02;7.70;;;;;;;;;;5024650;28;20048;-87
2022/09/12 05:07:31;;;;;;;12.85;7.97;;;;;;;;;;5027829;28;20049;-86
2022/09/12 05:09:57;;;;;;;11.20;8.25;;;;;;;;;;5027541;28;20063;-87
2022/09/12 05:12:23;;;;;;;16.77;8.75;;;;;;;;;;5038024;28;20103;-89
2022/09/12 05:14:49;;;;;;;14.63;6.97;;;;;;;;;;5037889;28;20025;-88
2022/09/12 05:17:15;;;;;;;10.70;7.45;;;;;;;;;;5026154;28;20120;-88
2022/09/12 05:19:41;;;;;;;12.48;8.45;;;;;;;;;;5022470;28;20057;-88
2022/09/12 05:22:08;;;;;;;9.70;8.00;;;;;;;;;;5021863;28;20025;-88
2022/09/12 05:24:34;;;;;;;10.80;7.68;;;;;;;;;;5019124;28;20025;-87
2022/09/12 05:27:03;;;;;;;24.65;21.27;;;;;;;;;;5025284;28;20397;-87
2022/09/12 05:29:29;;;;;;;11.93;9.23;;;;;;;;;;5037889;28;20112;-87
2022/09/12 05:31:55;;;;;;;12.15;10.93;;;;;;;;;;5025913;28;20485;-86
2022/09/12 05:34:22;;;;;;;11.93;9.60;;;;;;;;;;5039434;28;20025;-86
2022/09/12 05:36:48;;;;;;;12.60;9.77;;;;;;;;;;5041031;28;20021;-86
2022/09/12 05:39:14;;;;;;;11.38;9.20;;;;;;;;;;5036378;28;20026;-86
2022/09/12 05:41:41;;;;;;;17.40;9.25;;;;;;;;;;5032434;28;20092;-89
2022/09/12 05:44:10;;;;;;;16.20;8.15;;;;;;;;;;5044242;28;20013;-87
2022/09/12 05:46:38;;;;;;;11.05;7.57;;;;;;;;;;5027260;28;20022;-90
2022/09/12 05:49:11;;;;;;;12.13;7.50;;;;;;;;;;5041701;28;20021;-88
2022/09/12 05:51:39;;;;;;;13.50;7.50;;;;;;;;;;5037495;28;20117;-88
2022/09/12 05:54:07;;;;;;;24.92;7.65;;;;;;;;;;5036662;28;20049;-89
2022/09/12 05:56:34;;;;;;;10.27;7.82;;;;;;;;;;5032626;28;20041;-95
2022/09/12 05:59:02;;;;;;;15.38;9.05;;;;;;;;;;5037200;28;20033;-89
2022/09/12 06:01:29;;;;;;;15.00;11.75;;;;;;;;;;5038223;28;20095;-90
2022/09/12 06:03:56;;;;;;;8.18;6.80;;;;;;;;;;5060147;28;20017;-89
2022/09/12 06:06:23;;;;;;;12.43;8.95;;;;;;;;;;5036607;28;20029;-90
2022/09/12 06:08:51;;;;;;;8.98;7.43;;;;;;;;;;5033651;28;20010;-90
2022/09/12 06:11:18;;;;;;;15.07;10.50;;;;;;;;;;5033361;28;20030;-90
2022/09/12 06:13:45;;;;;;;18.17;10.90;;;;;;;;;;5035428;28;20029;-91
2022/09/12 06:16:12;;;;;;;12.07;9.65;;;;;;;;;;5052714;28;20028;-95
2022/09/12 06:18:40;;;;;;;9.20;7.90;;;;;;;;;;5040841;28;20029;-94
2022/09/12 06:21:07;;;;;;;11.13;6.40;;;;;;;;;;5058230;28;20022;-91
2022/09/12 06:23:33;;;;;;;11.90;6.30;;;;;;;;;;5049824;28;20072;-90
2022/09/12 06:26:00;;;;;;;14.32;8.02;;;;;;;;;;5039568;28;20029;-92
2022/09/12 06:28:26;;;;;;;12.43;6.13;;;;;;;;;;5035549;28;20057;-89
2022/09/12 06:30:52;;;;;;;11.80;5.95;;;;;;;;;;5037261;28;20026;-90
2022/09/12 06:33:19;;;;;;;7.05;4.82;;;;;;;;;;5040504;28;20121;-94
2022/09/12 06:35:45;;;;;;;7.78;4.15;;;;;;;;;;5035753;28;20026;-93
2022/09/12 06:38:12;;;;;;;6.55;2.53;;;;;;;;;;5048337;28;20028;-95
2022/09/12 06:40:45;;;;;;;8.70;3.50;;;;;;;;;;5055738;28;20033;-94
2022/09/12 06:43:12;;;;;;;;;;;;;;;;;;5037944;28;20329;-92
2022/09/12 06:45:39;;;;;;;8.23;4.55;;;;;;;;;;5023751;28;19916;-96
2022/09/12 06:48:06;;;;;;;6.45;4.63;;;;;;;;;;5042035;28;20109;-96
2022/09/12 06:50:32;;;;;;;5.70;3.60;;;;;;;;;;5030622;28;20037;-94
2022/09/12 06:52:58;;;;;;;7.53;4.97;;;;;;;;;;5028952;28;20109;-96
2022/09/12 06:55:25;;;;;;;6.40;4.40;;;;;;;;;;5038500;28;20053;-96
2022/09/12 06:57:51;;;;;;;8.73;4.47;;;;;;;;;;5028827;28;20022;-92
2022/09/12 07:00:17;;;;;;;7.57;4.40;;;;;;;;;;5046321;28;20493;-91
2022/09/12 07:02:43;;;;;;;14.63;4.90;;;;;;;;;;5048423;28;20189;-93
2022/09/12 07:05:10;;;;;;;16.98;5.43;;;;;;;;;;5040882;28;20037;-92
2022/09/12 07:07:36;;;;;;;6.20;4.03;;;;;;;;;;5038367;28;20024;-92
2022/09/12 07:10:03;;;;;;;4.15;2.72;;;;;;;;;;5044861;28;20018;-91
2022/09/12 07:12:29;;;;;;;16.23;5.05;;;;;;;;;;5048823;28;20030;-91
2022/09/12 07:14:55;;;;;;;7.82;4.63;;;;;;;;;;5046738;28;20163;-90
2022/09/12 07:17:21;;;;;;;6.35;4.47;;;;;;;;;;5041547;28;20470;-91
2022/09/12 07:19:47;;;;;;;10.60;4.47;;;;;;;;;;5036380;28;20041;-89
2022/09/12 07:22:13;;;;;;;6.32;4.13;;;;;;;;;;5039105;28;20029;-88
2022/09/12 07:24:40;;;;;;;8.68;5.07;;;;;;;;;;5023721;28;20018;-90
2022/09/12 07:27:06;;;;;;;5.38;3.83;;;;;;;;;;5026185;28;20032;-94
2022/09/12 07:29:32;;;;;;;5.47;4.15;;;;;;;;;;5042418;28;20029;-91
2022/09/12 07:32:00;;;;;;;10.00;3.70;;;;;;;;;;5036194;28;20024;-91
2022/09/12 07:34:26;;;;;;;7.60;4.70;;;;;;;;;;5040038;28;20112;-93
2022/09/12 07:36:52;;;;;;;12.18;3.83;;;;;;;;;;5025119;28;20018;-91
2022/09/12 07:39:18;;;;;;;4.65;3.72;;;;;;;;;;5034192;28;20025;-92
2022/09/12 07:41:45;;;;;;;6.07;4.15;;;;;;;;;;5028750;28;20585;-91
2022/09/12 07:44:11;;;;;;;6.97;3.55;;;;;;;;;;5029053;28;20036;-93
2022/09/12 07:46:38;;;;;;;6.03;3.55;;;;;;;;;;5025476;28;20029;-89
2022/09/12 07:49:04;;;;;;;5.78;3.15;;;;;;;;;;5048619;28;20321;-87
2022/09/12 07:51:31;;;;;;;4.50;3.05;;;;;;;;;;5035100;28;20461;-89
2022/09/12 07:53:57;;;;;;;5.22;3.17;;;;;;;;;;5027175;28;20022;-88
2022/09/12 07:56:24;;;;;;;8.48;4.00;;;;;;;;;;5032061;28;20053;-88
2022/09/12 07:58:51;;;;;;;10.38;5.75;;;;;;;;;;5032811;28;20096;-89
2022/09/12 08:01:18;;;;;;;15.13;4.30;;;;;;;;;;5032436;28;20087;-91
2022/09/12 08:03:45;;;;;;;4.40;3.60;;;;;;;;;;5032769;28;20029;-90
2022/09/12 08:06:12;;;;;;;4.78;3.92;;;;;;;;;;5032369;28;20025;-88
2022/09/12 08:08:39;;;;;;;5.80;3.90;;;;;;;;;;5033276;28;20105;-88
2022/09/12 08:11:06;;;;;;;5.75;4.43;;;;;;;;;;5032304;28;20459;-89
2022/09/12 08:13:33;;;;;;;6.50;4.93;;;;;;;;;;5032376;28;20113;-88
2022/09/12 08:16:00;;;;;;;6.18;4.82;;;;;;;;;;5031838;28;20032;-90
2022/09/12 08:18:27;;;;;;;6.18;4.60;;;;;;;;;;5032677;28;20025;-90
2022/09/12 08:20:57;;;;;;;4.95;3.88;;;;;;;;;;5034815;28;20399;-90
2022/09/12 08:23:23;;;;;;;8.18;4.60;;;;;;;;;;5028896;28;20026;-89
2022/09/12 08:25:50;;;;;;;6.35;3.78;;;;;;;;;;5028598;28;20022;-89
2022/09/12 08:28:16;;;;;;;8.50;5.03;;;;;;;;;;5032578;28;20515;-90
2022/09/12 08:30:42;;;;;;;7.68;6.28;;;;;;;;;;5033576;28;20055;-89
2022/09/12 08:33:08;;;;;;;8.70;5.60;;;;;;;;;;5018015;28;20112;-89
2022/09/12 08:35:34;;;;;;;4.88;4.10;;;;;;;;;;5032700;28;20021;-89
2022/09/12 08:38:00;;;;;;;6.50;5.57;;;;;;;;;;5039136;28;20024;-89
2022/09/12 08:40:26;;;;;;;7.90;4.50;;;;;;;;;;5045169;28;20045;-89
2022/09/12 08:43:03;;;;;;;4.70;3.60;;;;;;;;;;5037090;28;20112;-90
2022/09/12 08:45:34;;;;;;;12.13;4.15;;;;;;;;;;5019121;28;20035;-90
2022/09/12 08:48:02;;;;;;;4.80;3.33;;;;;;;;;;5033184;28;20021;-90
2022/09/12 08:50:28;;;;;;;5.30;3.42;;;;;;;;;;5012204;28;20025;-89
2022/09/12 08:53:16;;;;;;;6.57;4.50;;;;;;;;;;5011918;28;20022;-90
2022/09/12 08:55:43;;;;;;;6.50;3.72;;;;;;;;;;5038511;28;20140;-90
2022/09/12 08:58:18;;;;;;;4.22;3.75;;;;;;;;;;5032286;28;20021;-90
2022/09/12 09:01:03;;;;;;;5.10;3.55;;;;;;;;;;5018950;28;20567;-89
2022/09/12 09:03:29;;;;;;;6.28;4.50;;;;;;;;;;5031370;28;20036;-90
2022/09/12 09:06:05;;;;;;;7.35;4.30;;;;;;;;;;5031155;28;20435;-90
2022/09/12 09:08:39;;;;;;;7.15;4.60;;;;;;;;;;5031084;28;20065;-90
2022/09/12 09:11:17;;;;;;;8.23;5.13;;;;;;;;;;5036348;28;20458;-90
2022/09/12 09:17:01;;;;;;;6.93;5.88;;;;;;;;;;5022403;28;20452;-91
2022/09/12 09:19:33;;;;;;;7.07;5.22;;;;;;;;;;5031919;28;20093;-90
2022/09/12 09:22:03;;;;;;;7.07;5.90;;;;;;;;;;5026165;28;20036;-90
2022/09/12 09:24:49;;;;;;;4.90;4.03;;;;;;;;;;5025978;28;20050;-90
2022/09/12 09:27:22;;;;;;;4.88;3.47;;;;;;;;;;5031784;28;20022;-89
2022/09/12 09:29:51;;;;;;;11.35;5.18;;;;;;;;;;5034331;28;20362;-90
2022/09/12 09:32:18;;;;;;;5.70;3.88;;;;;;;;;;5031828;28;20049;-89
2022/09/12 09:34:45;;;;;;;5.03;3.90;;;;;;;;;;5031521;28;20025;-90
2022/09/12 09:37:20;;;;;;;3.58;2.70;;;;;;;;;;5034833;28;20033;-89
2022/09/12 09:39:51;;;;;;;4.28;3.50;;;;;;;;;;5036122;28;20033;-89
2022/09/12 09:42:27;;;;;;;8.73;4.50;;;;;;;;;;5035430;28;20029;-89
2022/09/12 09:44:55;;;;;;;5.22;4.32;;;;;;;;;;5031551;28;20037;-90
2022/09/12 09:47:21;;;;;;;5.35;3.58;;;;;;;;;;5032024;28;20480;-89
2022/09/12 09:49:47;;;;;;;5.63;3.90;;;;;;;;;;5031822;28;20032;-90
2022/09/12 09:52:15;;;;;;;5.07;3.03;;;;;;;;;;5031178;28;20071;-89
2022/09/12 09:54:44;;;;;;;11.40;4.05;;;;;;;;;;5031303;28;20025;-89
2022/09/12 09:57:29;;;;;;;7.75;3.85;;;;;;;;;;5017050;28;20059;-89
2022/09/12 09:59:55;;;;;;;18.73;8.77;;;;;;;;;;5031755;28;20037;-89
2022/09/12 10:02:22;;;;;;;5.95;3.55;;;;;;;;;;5018286;28;20117;-89
2022/09/12 10:04:56;;;;;;;5.72;4.28;;;;;;;;;;5033809;28;20027;-89
2022/09/12 10:07:23;;;;;;;7.35;4.40;;;;;;;;;;5031332;28;20129;-88
2022/09/12 10:10:08;;;;;;;5.00;3.83;;;;;;;;;;5019326;28;20477;-89
2022/09/12 10:12:34;;;;;;;7.78;3.78;;;;;;;;;;5030163;28;20033;-89
2022/09/12 10:15:16;;;;;;;5.18;2.83;;;;;;;;;;5034807;28;20021;-90
2022/09/12 10:17:44;;;;;;;4.57;3.57;;;;;;;;;;5035236;28;20021;-90
2022/09/12 10:20:34;;;;;;;4.70;3.28;;;;;;;;;;5043902;28;20429;-89
2022/09/12 10:23:01;;;;;;;4.97;2.42;;;;;;;;;;5019447;28;20040;-89
2022/09/12 10:25:27;;;;;;;8.00;4.05;;;;;;;;;;5041410;28;20055;-86
2022/09/12 10:27:58;;;;;;;5.20;3.40;;;;;;;;;;5040756;28;20037;-86
2022/09/12 10:30:26;;;;;;;4.43;3.47;;;;;;;;;;5024657;28;20030;-87
2022/09/12 10:32:54;;;;;;;6.15;5.15;;;;;;;;;;5034013;28;20025;-87
2022/09/12 10:35:23;;;;;;;7.45;4.63;;;;;;;;;;5035692;28;20017;-85
2022/09/12 10:37:54;;;;;;;10.65;5.25;;;;;;;;;;5039123;28;20074;-88
2022/09/12 10:40:22;;;;;;;11.32;8.10;;;;;;;;;;5038229;28;20037;-87
2022/09/12 10:42:57;;;;;;;6.65;3.80;;;;;;;;;;5038022;28;20022;-86
2022/09/12 10:45:31;;;;;;;7.55;3.78;;;;;;;;;;5043419;28;20072;-85
2022/09/12 10:47:58;;;;;;;4.82;3.28;;;;;;;;;;5029254;28;20087;-86
2022/09/12 10:50:26;;;;;;;3.58;2.78;;;;;;;;;;5041580;28;20175;-86
2022/09/12 10:52:53;;;;;;;3.60;2.40;;;;;;;;;;5031011;28;20021;-86
2022/09/12 10:55:23;;;;;;;8.52;6.25;;;;;;;;;;5024235;28;20129;-85
2022/09/12 10:58:13;;;;;;;7.70;3.17;;;;;;;;;;5027050;28;20045;-86
2022/09/12 11:00:45;;;;;;;7.90;5.32;;;;;;;;;;5030478;28;20029;-86
2022/09/12 11:03:32;;;;;;;3.92;2.88;;;;;;;;;;5032123;28;20125;-86
2022/09/12 11:06:00;;;;;;;5.32;3.55;;;;;;;;;;5031611;28;20087;-86
2022/09/12 11:08:38;;;;;;;6.60;4.13;;;;;;;;;;5029044;28;20058;-87
2022/09/12 11:11:04;;;;;;;8.10;3.17;;;;;;;;;;5038809;28;20503;-86
2022/09/12 11:13:39;;;;;;;8.63;4.13;;;;;;;;;;5031710;28;20021;-86
2022/09/12 11:16:21;;;;;;;4.30;3.10;;;;;;;;;;5052482;28;20021;-85
2022/09/12 11:18:47;;;;;;;8.13;3.95;;;;;;;;;;5028841;28;20013;-86
2022/09/12 11:21:32;;;;;;;4.53;2.22;;;;;;;;;;5039438;28;20572;-86
2022/09/12 11:24:34;;;;;;;5.90;3.50;;;;;;;;;;5023476;28;20072;-87
2022/09/12 11:27:00;;;;;;;4.07;2.83;;;;;;;;;;4988870;28;20021;-86
2022/09/12 11:29:45;;;;;;;8.80;2.78;;;;;;;;;;5018760;28;20052;-85
2022/09/12 11:32:14;;;;;;;7.45;2.70;;;;;;;;;;5029748;28;20021;-87
2022/09/12 11:35:13;;;;;;;4.57;2.45;;;;;;;;;;5030745;28;20056;-87
2022/09/12 11:37:39;;;;;;;2.92;2.22;;;;;;;;;;5018112;28;20037;-87
2022/09/12 11:40:21;;;;;;;2.45;1.63;;;;;;;;;;5025965;28;20121;-86
2022/09/12 11:42:49;;;;;;;5.40;3.20;;;;;;;;;;5026312;28;20045;-86
2022/09/12 11:45:17;;;;;;;2.88;1.70;;;;;;;;;;5030314;28;20033;-86
2022/09/12 11:47:46;;;;;;;4.80;2.65;;;;;;;;;;5032611;28;20052;-87
2022/09/12 11:50:20;;;;;;;3.75;2.72;;;;;;;;;;5019891;28;20021;-85
2022/09/12 11:52:46;;;;;;;3.80;2.28;;;;;;;;;;5032338;28;20491;-85
2022/09/12 11:55:20;;;;;;;3.05;2.13;;;;;;;;;;5031431;28;20532;-85
2022/09/12 11:57:53;;;;;;;3.45;2.30;;;;;;;;;;5038251;28;20037;-85
2022/09/12 12:00:19;;;;;;;;;;;;;;;;;;5030523;28;20037;-85
2022/09/12 12:02:55;;;;;;;5.38;3.00;;;;;;;;;;5034907;28;19932;-85
2022/09/12 12:05:24;;;;;;;4.88;2.42;;;;;;;;;;5030678;28;20043;-85
2022/09/12 12:08:01;;;;;;;2.70;1.55;;;;;;;;;;5026255;28;20060;-85
2022/09/12 12:10:36;;;;;;;3.17;2.38;;;;;;;;;;5042297;28;20099;-85
2022/09/12 12:13:04;;;;;;;4.28;1.75;;;;;;;;;;5040126;28;20428;-85
2022/09/12 12:15:31;;;;;;;2.58;1.67;;;;;;;;;;5030150;28;20021;-85
2022/09/12 12:18:01;;;;;;;3.28;2.45;;;;;;;;;;5024790;28;20421;-85
2022/09/12 12:20:27;;;;;;;5.03;2.53;;;;;;;;;;5025591;28;20101;-86
2022/09/12 12:22:54;;;;;;;3.35;2.15;;;;;;;;;;5028095;28;20018;-85
2022/09/12 12:25:20;;;;;;;3.67;2.28;;;;;;;;;;5031066;28;20022;-86
2022/09/12 12:27:50;;;;;;;4.40;2.97;;;;;;;;;;5027856;28;20018;-84
2022/09/12 12:30:32;;;;;;;5.35;2.67;;;;;;;;;;5031263;28;20022;-85
2022/09/12 12:33:01;;;;;;;5.15;3.47;;;;;;;;;;5039980;28;20043;-86
2022/09/12 12:35:33;;;;;;;4.82;2.67;;;;;;;;;;5027894;28;20025;-86
2022/09/12 12:37:59;;;;;;;3.03;1.65;;;;;;;;;;5025724;28;20025;-87
2022/09/12 12:40:26;;;;;;;3.40;2.38;;;;;;;;;;5032083;28;20135;-85
2022/09/12 12:43:03;;;;;;;5.07;2.97;;;;;;;;;;5030458;28;20010;-85
2022/09/12 12:45:29;;;;;;;4.03;2.70;;;;;;;;;;5020494;28;20021;-84
2022/09/12 12:47:57;;;;;;;6.20;2.92;;;;;;;;;;5038835;28;20465;-87
2022/09/12 12:50:25;;;;;;;5.47;3.40;;;;;;;;;;5028410;28;20018;-86
2022/09/12 12:52:57;;;;;;;5.15;2.63;;;;;;;;;;5038490;28;20018;-86
2022/09/12 12:55:28;;;;;;;4.55;2.53;;;;;;;;;;5029098;28;20053;-85
2022/09/12 12:58:01;;;;;;;5.45;2.03;;;;;;;;;;5029941;28;20022;-89
2022/09/12 13:00:30;;;;;;;4.15;2.83;;;;;;;;;;5027592;28;20030;-84
2022/09/12 13:02:57;;;;;;;6.65;2.63;;;;;;;;;;5033775;28;20036;-86
2022/09/12 13:05:25;;;;;;;4.57;2.80;;;;;;;;;;5030477;28;20030;-86
2022/09/12 13:07:56;;;;;;;3.70;2.50;;;;;;;;;;5037111;28;20009;-86
2022/09/12 13:10:23;;;;;;;4.40;2.38;;;;;;;;;;5022530;28;20026;-84
2022/09/12 13:12:50;;;;;;;6.22;2.50;;;;;;;;;;5028782;28;20017;-87
2022/09/12 13:15:28;;;;;;;4.80;3.90;;;;;;;;;;5043638;28;20018;-86
2022/09/12 13:17:58;;;;;;;5.00;2.85;;;;;;;;;;5028494;28;20029;-85
2022/09/12 13:20:28;;;;;;;6.53;3.40;;;;;;;;;;5049898;28;20060;-87
2022/09/12 13:22:54;;;;;;;3.42;2.55;;;;;;;;;;5040501;28;20021;-87
2022/09/12 13:25:26;;;;;;;5.47;3.85;;;;;;;;;;5017786;28;20476;-85
2022/09/12 13:27:58;;;;;;;4.13;2.72;;;;;;;;;;5028407;28;20029;-85
2022/09/12 13:30:24;;;;;;;3.90;2.53;;;;;;;;;;5037803;28;20460;-87
2022/09/12 13:32:50;;;;;;;4.32;2.38;;;;;;;;;;5015041;28;20076;-85
2022/09/12 13:35:29;;;;;;;5.32;2.53;;;;;;;;;;5036244;28;20034;-85
2022/09/12 13:38:01;;;;;;;3.45;1.85;;;;;;;;;;5037649;28;20523;-86
2022/09/12 13:40:35;;;;;;;4.03;2.20;;;;;;;;;;5032420;28;20061;-86
2022/09/12 13:43:11;;;;;;;3.65;2.58;;;;;;;;;;5017312;28;20031;-86
2022/09/12 13:45:41;;;;;;;6.53;2.97;;;;;;;;;;5047191;28;20053;-87
2022/09/12 13:48:11;;;;;;;11.25;7.80;;;;;;;;;;5031267;28;20017;-85
2022/09/12 13:50:40;;;;;;;5.07;2.60;;;;;;;;;;5027643;28;20017;-87
2022/09/12 13:53:16;;;;;;;4.45;2.35;;;;;;;;;;5034152;28;20112;-83
2022/09/12 13:55:45;;;;;;;7.60;6.18;;;;;;;;;;5035720;28;20151;-88
2022/09/12 13:58:20;;;;;;;6.50;4.80;;;;;;;;;;5039198;28;20036;-87
2022/09/12 14:00:46;;;;;;;4.88;3.63;;;;;;;;;;5032799;28;20116;-87
2022/09/12 14:06:11;;;;;;;7.20;3.75;;;;;;;;;;5034165;28;20518;-87
2022/09/12 14:08:41;;;;;;;7.28;4.35;;;;;;;;;;5031178;28;20536;-87
2022/09/12 14:11:09;;;;;;;6.90;5.05;;;;;;;;;;5026923;28;20033;-86
2022/09/12 14:13:37;;;;;;;11.63;7.38;;;;;;;;;;5038144;28;20056;-87
2022/09/12 14:16:07;;;;;;;7.53;4.45;;;;;;;;;;5030930;28;20021;-88
2022/09/12 14:18:35;;;;;;;7.55;4.97;;;;;;;;;;5033267;28;20024;-86
2022/09/12 14:21:09;;;;;;;4.90;3.72;;;;;;;;;;5031940;28;20040;-88
2022/09/12 14:23:38;;;;;;;6.55;4.22;;;;;;;;;;5038297;28;20025;-87
2022/09/12 14:26:08;;;;;;;6.18;3.80;;;;;;;;;;5032027;28;20045;-89
2022/09/12 14:28:36;;;;;;;5.90;3.70;;;;;;;;;;5028681;28;20017;-87
2022/09/12 14:31:06;;;;;;;5.13;3.88;;;;;;;;;;5032017;28;20022;-86
2022/09/12 14:33:33;;;;;;;10.27;4.07;;;;;;;;;;5028068;28;20041;-88
2022/09/12 14:36:11;;;;;;;13.82;6.65;;;;;;;;;;5032157;28;20029;-88
2022/09/12 14:38:40;;;;;;;11.13;4.82;;;;;;;;;;5035739;28;20717;-88
2022/09/12 14:41:08;;;;;;;5.18;3.97;;;;;;;;;;5034883;28;20088;-86
2022/09/12 14:43:35;;;;;;;10.00;3.30;;;;;;;;;;5043770;28;20056;-88
2022/09/12 14:46:14;;;;;;;7.50;4.43;;;;;;;;;;5036002;28;20026;-87
2022/09/12 14:48:43;;;;;;;3.80;2.40;;;;;;;;;;5033389;28;20018;-87
2022/09/12 14:51:18;;;;;;;4.30;3.50;;;;;;;;;;5028497;28;20393;-87
2022/09/12 14:53:47;;;;;;;5.95;4.15;;;;;;;;;;5030425;28;20096;-87